Time;durP1;ratioP1;P1;durP2;ratioP2;P2;SDS_P1;SDS_P2;PMS_P1;PMS_P2;Temp;Humidity;BMP_temperature;BMP_pressure;BME280_temperature;BME280_humidity;BME280_pressure;Samples;Min_cycle;Max_cycle;Signal;HPM_P1;HPM_P2
2022/08/02 00:01:03;;;;;;;1.27;1.00;;;17.10;99.90;;;;;;4987258;28;20137;-80
2022/08/02 00:03:29;;;;;;;0.95;0.25;;;17.00;99.90;;;;;;4987172;28;20033;-82
2022/08/02 00:05:54;;;;;;;0.55;0.35;;;17.00;99.90;;;;;;5003956;28;20022;-89
2022/08/02 00:08:21;;;;;;;0.30;0.25;;;16.90;99.90;;;;;;5003761;28;20022;-88
2022/08/02 00:10:47;;;;;;;0.28;0.28;;;16.80;99.90;;;;;;4987155;28;20034;-90
2022/08/02 00:13:13;;;;;;;0.10;0.10;;;16.70;99.90;;;;;;5004555;28;20118;-90
2022/08/02 00:15:38;;;;;;;0.57;0.45;;;16.70;99.90;;;;;;5004257;28;20038;-79
2022/08/02 00:18:04;;;;;;;0.45;0.25;;;16.70;99.90;;;;;;5003713;28;20373;-79
2022/08/02 00:20:30;;;;;;;0.10;0.10;;;16.60;99.90;;;;;;5002930;28;20030;-86
2022/08/02 00:22:55;;;;;;;0.47;0.47;;;16.60;99.90;;;;;;5000499;28;20021;-75
2022/08/02 00:25:21;;;;;;;0.20;0.20;;;16.70;99.90;;;;;;5012193;28;20029;-76
2022/08/02 00:27:47;;;;;;;0.47;0.47;;;16.70;99.90;;;;;;5018687;28;20045;-76
2022/08/02 00:30:12;;;;;;;1.10;0.60;;;16.70;99.90;;;;;;4990936;28;20050;-79
2022/08/02 00:32:38;;;;;;;0.30;0.30;;;16.60;99.90;;;;;;4986084;28;20042;-88
2022/08/02 00:35:04;;;;;;;0.45;0.45;;;16.60;99.90;;;;;;5003792;28;20218;-88
2022/08/02 00:37:30;;;;;;;0.30;0.30;;;16.40;99.90;;;;;;5003854;28;20027;-90
2022/08/02 00:39:56;;;;;;;0.17;0.17;;;16.40;99.90;;;;;;4986670;28;20138;-78
2022/08/02 00:42:22;;;;;;;0.73;0.43;;;16.30;99.90;;;;;;5003375;28;20138;-88
2022/08/02 00:44:47;;;;;;;1.02;0.47;;;16.30;99.90;;;;;;5001540;28;20018;-85
2022/08/02 00:47:13;;;;;;;0.28;0.28;;;16.30;99.90;;;;;;4987416;28;20026;-82
2022/08/02 00:49:38;;;;;;;0.93;0.75;;;16.20;99.90;;;;;;5003789;28;20026;-79
2022/08/02 00:52:04;;;;;;;0.20;0.20;;;16.20;99.90;;;;;;4996230;28;20043;-77
2022/08/02 00:54:30;;;;;;;0.30;0.30;;;16.10;99.90;;;;;;4994154;28;20037;-77
2022/08/02 00:56:56;;;;;;;0.93;0.80;;;16.00;99.90;;;;;;4993909;28;20054;-90
2022/08/02 00:59:21;;;;;;;0.13;0.13;;;15.90;99.90;;;;;;4994234;28;20488;-87
2022/08/02 01:01:47;;;;;;;0.45;0.38;;;15.90;99.90;;;;;;4976763;28;20454;-88
2022/08/02 01:04:13;;;;;;;0.30;0.30;;;15.80;99.90;;;;;;4994001;28;20022;-77
2022/08/02 01:06:41;;;;;;;0.50;0.50;;;15.80;99.90;;;;;;4997674;28;20023;-82
2022/08/02 01:09:07;;;;;;;0.20;0.20;;;15.80;99.90;;;;;;5009536;28;20011;-75
2022/08/02 01:11:34;;;;;;;0.57;0.22;;;15.90;99.90;;;;;;5017129;28;20021;-78
2022/08/02 01:14:12;;;;;;;0.50;0.50;;;15.80;99.90;;;;;;4996440;28;20022;-86
2022/08/02 01:16:58;;;;;;;0.15;0.15;;;15.80;99.90;;;;;;4994113;28;20058;-77
2022/08/02 01:19:50;;;;;;;1.65;0.45;;;15.80;99.90;;;;;;4976232;28;20039;-82
2022/08/02 01:22:37;;;;;;;1.10;1.02;;;15.80;99.90;;;;;;4993733;28;20165;-87
2022/08/02 01:25:08;;;;;;;0.20;0.20;;;15.70;99.90;;;;;;4993828;28;20033;-89
2022/08/02 01:28:01;;;;;;;0.40;0.40;;;15.60;99.90;;;;;;4993902;28;20534;-87
2022/08/02 01:30:29;;;;;;;0.98;0.88;;;15.50;99.90;;;;;;4977253;28;20113;-89
2022/08/02 01:33:03;;;;;;;0.30;0.30;;;15.50;99.90;;;;;;4997914;28;20104;-85
2022/08/02 01:35:38;;;;;;;0.55;0.35;;;15.40;99.90;;;;;;5018278;28;20030;-78
2022/08/02 01:38:13;;;;;;;1.02;0.70;;;15.30;99.90;;;;;;4984304;28;20022;-81
2022/08/02 01:41:07;;;;;;;0.95;0.73;;;15.30;99.90;;;;;;4997048;28;20094;-77
2022/08/02 01:43:35;;;;;;;1.95;0.98;;;15.40;99.90;;;;;;5005304;28;20113;-88
2022/08/02 01:46:11;;;;;;;0.52;0.52;;;15.30;99.90;;;;;;4998268;28;20030;-78
2022/08/02 01:48:41;;;;;;;0.32;0.32;;;15.30;99.90;;;;;;4980276;28;20034;-80
2022/08/02 01:51:10;;;;;;;0.22;0.22;;;15.30;99.90;;;;;;5000020;28;20105;-86
2022/08/02 01:53:37;;;;;;;;;;;15.30;99.90;;;;;;4997399;28;20036;-81
2022/08/02 01:56:06;;;;;;;0.63;0.60;;;15.20;99.90;;;;;;4996760;28;19913;-91
2022/08/02 01:58:38;;;;;;;0.63;0.45;;;15.20;99.90;;;;;;4996797;28;20495;-88
2022/08/02 02:01:58;;;;;;;0.32;0.32;;;15.10;99.90;;;;;;4999692;28;20051;-80
2022/08/02 02:04:26;;;;;;;0.47;0.45;;;15.20;99.90;;;;;;5002410;28;20007;-76
2022/08/02 02:06:53;;;;;;;0.20;0.20;;;15.10;99.90;;;;;;5006178;28;20587;-77
2022/08/02 02:09:26;;;;;;;6.63;0.60;;;15.00;99.90;;;;;;4996735;28;20109;-90
2022/08/02 02:11:53;;;;;;;0.60;0.60;;;15.00;99.90;;;;;;4996713;28;20030;-86
2022/08/02 02:14:20;;;;;;;0.43;0.43;;;14.90;99.90;;;;;;4996720;28;20018;-89
2022/08/02 02:16:48;;;;;;;0.50;0.50;;;14.90;99.90;;;;;;4979341;28;20407;-88
2022/08/02 02:19:19;;;;;;;0.50;0.50;;;14.90;99.90;;;;;;4996587;28;20054;-83
2022/08/02 02:21:45;;;;;;;0.77;0.35;;;14.90;99.90;;;;;;5009544;28;20007;-77
2022/08/02 02:24:11;;;;;;;0.47;0.47;;;14.90;99.90;;;;;;5008082;28;20386;-85
2022/08/02 02:27:01;;;;;;;0.40;0.40;;;14.90;99.90;;;;;;5002675;28;20015;-76
2022/08/02 02:29:29;;;;;;;0.70;0.70;;;14.90;99.90;;;;;;5002351;28;20073;-76
2022/08/02 02:31:57;;;;;;;0.60;0.60;;;15.00;99.90;;;;;;5012679;28;20022;-85
2022/08/02 02:34:29;;;;;;;0.65;0.65;;;15.00;99.90;;;;;;5016380;28;20013;-76
2022/08/02 02:36:59;;;;;;;0.70;0.70;;;15.10;99.90;;;;;;5018748;28;20010;-75
2022/08/02 02:39:27;;;;;;;0.22;0.22;;;15.00;99.90;;;;;;5002365;28;20011;-77
2022/08/02 02:41:55;;;;;;;0.85;0.52;;;15.00;99.90;;;;;;4999549;28;20049;-89
2022/08/02 02:44:22;;;;;;;1.63;0.28;;;14.90;99.90;;;;;;4998513;28;20086;-82
2022/08/02 02:46:53;;;;;;;0.50;0.50;;;14.90;99.90;;;;;;5017133;28;20022;-84
2022/08/02 02:52:43;;;;;;;0.43;0.43;;;14.70;99.90;;;;;;4999480;28;20115;-82
2022/08/02 02:55:13;;;;;;;1.88;0.70;;;14.70;99.90;;;;;;5017104;28;20032;-75
2022/08/02 03:04:09;;;;;;;0.30;0.30;;;14.60;99.90;;;;;;5018265;28;20040;-76
2022/08/02 03:06:38;;;;;;;0.75;0.75;;;14.60;99.90;;;;;;5019175;28;20026;-77
2022/08/02 03:13:22;;;;;;;0.88;0.88;;;14.50;99.90;;;;;;5020084;28;20021;-75
2022/08/02 03:15:52;;;;;;;0.70;0.63;;;14.50;99.90;;;;;;5019275;28;20081;-75
2022/08/02 03:18:30;;;;;;;0.60;0.60;;;14.60;99.90;;;;;;5018823;28;20010;-76
2022/08/02 03:21:14;;;;;;;0.20;0.20;;;14.50;99.90;;;;;;4995518;28;20203;-83
2022/08/02 03:27:03;;;;;;;0.20;0.20;;;14.50;99.90;;;;;;4998866;28;20018;-75
2022/08/02 03:29:29;;;;;;;0.57;0.57;;;14.50;99.90;;;;;;4982398;28;20014;-75
2022/08/02 03:35:18;;;;;;;0.47;0.47;;;14.70;99.90;;;;;;4975102;22;20086;-75
2022/08/02 03:37:44;;;;;;;0.45;0.45;;;14.60;99.90;;;;;;5015353;28;20034;-81
2022/08/02 03:40:11;;;;;;;0.52;0.52;;;14.60;99.90;;;;;;4989279;28;20018;-89
2022/08/02 03:42:39;;;;;;;0.95;0.22;;;14.60;99.90;;;;;;4988797;28;20026;-87
2022/08/02 03:45:09;;;;;;;1.13;0.40;;;14.50;99.90;;;;;;4987171;28;20098;-77
2022/08/02 03:47:37;;;;;;;1.33;1.08;;;14.50;99.90;;;;;;4998580;28;20090;-77
2022/08/02 03:50:04;;;;;;;1.10;1.10;;;14.50;99.90;;;;;;5012412;28;20222;-80
2022/08/02 03:52:32;;;;;;;2.10;0.85;;;14.50;99.90;;;;;;5018070;28;20003;-76
2022/08/02 03:54:58;;;;;;;0.73;0.73;;;;;;;;;;5016793;28;20072;-80
2022/08/02 03:57:24;;;;;;;0.65;0.25;;;14.40;99.90;;;;;;4995374;28;20026;-78
2022/08/02 03:59:50;;;;;;;0.38;0.38;;;14.40;99.90;;;;;;4990561;28;20041;-76
2022/08/02 04:02:18;;;;;;;0.80;0.80;;;14.40;99.90;;;;;;5017347;28;20018;-77
2022/08/02 04:04:44;;;;;;;0.70;0.70;;;14.40;99.90;;;;;;5001050;28;20094;-76
2022/08/02 04:11:29;;;;;;;0.63;0.63;;;14.40;99.90;;;;;;4996237;28;20026;-76
2022/08/02 04:13:24;;;;;;;0.30;0.30;;;14.40;99.90;;;;;;4992397;28;20031;-83
2022/08/02 04:15:54;;;;;;;2.63;0.75;;;14.40;99.90;;;;;;4979025;28;20054;-76
2022/08/02 04:18:27;;;;;;;2.47;0.50;;;14.50;99.90;;;;;;4997306;28;20050;-76
2022/08/02 04:21:04;;;;;;;1.10;0.30;;;14.40;99.90;;;;;;4975505;28;20121;-86
2022/08/02 04:23:34;;;;;;;1.00;0.90;;;14.40;99.90;;;;;;4984565;28;20061;-86
2022/08/02 04:26:20;;;;;;;0.32;0.32;;;14.40;99.90;;;;;;4979003;28;20031;-75
2022/08/02 04:28:47;;;;;;;0.30;0.30;;;14.60;99.90;;;;;;4997021;28;20022;-77
2022/08/02 04:31:16;;;;;;;0.52;0.52;;;14.60;99.90;;;;;;4968693;28;20520;-85
2022/08/02 04:33:42;;;;;;;1.23;0.40;;;14.70;99.90;;;;;;4989682;28;20053;-76
2022/08/02 04:36:09;;;;;;;0.30;0.30;;;14.80;99.90;;;;;;4983856;28;20375;-77
2022/08/02 04:38:35;;;;;;;0.22;0.22;;;14.80;99.90;;;;;;4966519;28;20171;-80
2022/08/02 04:41:01;;;;;;;0.38;0.30;;;14.90;99.90;;;;;;4978086;28;20334;-82
2022/08/02 04:43:26;;;;;;;0.47;0.47;;;15.00;99.90;;;;;;4985773;28;20022;-79
2022/08/02 04:45:53;;;;;;;4.95;0.88;;;15.10;99.90;;;;;;4986571;28;20338;-85
2022/08/02 04:48:21;;;;;;;0.35;0.35;;;15.10;99.90;;;;;;4985896;28;20096;-80
2022/08/02 04:50:47;;;;;;;0.85;0.85;;;15.30;99.90;;;;;;5003738;28;20044;-83
2022/08/02 04:53:13;;;;;;;0.40;0.40;;;15.40;99.90;;;;;;4985879;28;20018;-85
2022/08/02 04:55:38;;;;;;;0.57;0.57;;;15.50;99.90;;;;;;5003417;28;20038;-78
2022/08/02 04:58:04;;;;;;;1.80;1.02;;;15.70;99.90;;;;;;4985996;28;20128;-86
2022/08/02 05:00:31;;;;;;;0.38;0.38;;;15.80;99.90;;;;;;4985816;28;20042;-84
2022/08/02 05:02:58;;;;;;;0.22;0.22;;;16.00;99.90;;;;;;4985765;28;20018;-79
2022/08/02 05:05:24;;;;;;;5.97;0.50;;;;;;;;;;4987073;28;20026;-81
2022/08/02 05:07:49;;;;;;;0.55;0.50;;;16.10;99.90;;;;;;5007128;28;20031;-83
2022/08/02 05:10:15;;;;;;;0.40;0.40;;;;;;;;;;5007129;28;20022;-78
2022/08/02 05:12:41;;;;;;;0.88;0.30;;;16.40;99.90;;;;;;5007341;28;20026;-85
2022/08/02 05:15:08;;;;;;;0.80;0.32;;;16.50;99.90;;;;;;4989129;28;20033;-82
2022/08/02 05:17:34;;;;;;;0.35;0.35;;;16.60;99.90;;;;;;5006717;28;20022;-80
2022/08/02 05:20:00;;;;;;;0.20;0.20;;;16.70;99.90;;;;;;4988995;28;20028;-84
2022/08/02 05:22:26;;;;;;;0.43;0.43;;;;;;;;;;5007889;28;20029;-84
2022/08/02 05:24:52;;;;;;;0.20;0.20;;;17.00;99.90;;;;;;4990356;28;20077;-84
2022/08/02 05:27:17;;;;;;;0.40;0.30;;;17.20;99.90;;;;;;5007753;28;20030;-84
2022/08/02 05:29:43;;;;;;;0.60;0.28;;;17.30;99.90;;;;;;5007730;28;20018;-82
2022/08/02 05:32:08;;;;;;;0.32;0.32;;;17.40;99.90;;;;;;4990331;28;20038;-84
2022/08/02 05:34:34;;;;;;;1.65;0.50;;;17.40;99.90;;;;;;4990149;28;20018;-83
2022/08/02 05:37:00;;;;;;;4.63;0.38;;;17.50;99.90;;;;;;5007453;28;20049;-84
2022/08/02 05:39:25;;;;;;;1.15;0.70;;;17.50;99.90;;;;;;4990216;28;20130;-82
2022/08/02 05:41:51;;;;;;;0.30;0.30;;;17.40;99.90;;;;;;5007388;28;20014;-81
2022/08/02 05:44:17;;;;;;;0.15;0.15;;;17.30;99.90;;;;;;4990065;28;20026;-84
2022/08/02 05:46:42;;;;;;;0.57;0.30;;;17.30;99.90;;;;;;5007407;28;20015;-78
2022/08/02 05:49:08;;;;;;;1.55;0.35;;;17.40;99.90;;;;;;5007106;28;20076;-84
2022/08/02 05:51:58;;;;;;;0.73;0.73;;;17.40;99.90;;;;;;5007356;28;20018;-78
2022/08/02 05:54:45;;;;;;;0.30;0.30;;;17.60;99.90;;;;;;5006668;28;20073;-83
2022/08/02 05:57:24;;;;;;;0.35;0.35;;;17.70;99.90;;;;;;5007194;28;20018;-81
2022/08/02 06:00:00;;;;;;;0.47;0.47;;;17.80;99.90;;;;;;5007021;28;20049;-79
2022/08/02 06:02:42;;;;;;;0.40;0.40;;;17.90;99.90;;;;;;5007084;28;20022;-83
2022/08/02 06:05:13;;;;;;;0.43;0.43;;;18.20;99.90;;;;;;5006892;28;20019;-77
2022/08/02 06:07:42;;;;;;;0.75;0.43;;;18.30;99.90;;;;;;5006817;28;20014;-83
2022/08/02 06:10:09;;;;;;;0.50;0.50;;;18.40;99.90;;;;;;5006815;28;20025;-82
2022/08/02 06:13:04;;;;;;;0.40;0.40;;;18.40;99.90;;;;;;5006915;28;20041;-79
2022/08/02 06:15:30;;;;;;;1.10;1.10;;;18.60;99.90;;;;;;5001788;28;20054;-82
2022/08/02 06:17:57;;;;;;;0.40;0.40;;;18.70;99.90;;;;;;4988432;28;20120;-84
2022/08/02 06:20:25;;;;;;;0.77;0.77;;;19.00;99.90;;;;;;4989461;28;20018;-82
2022/08/02 06:22:53;;;;;;;0.40;0.40;;;19.10;99.90;;;;;;5006601;28;20306;-84
2022/08/02 06:25:21;;;;;;;1.63;0.63;;;19.30;99.90;;;;;;5006603;28;20025;-84
2022/08/02 06:27:48;;;;;;;0.82;0.82;;;19.50;99.90;;;;;;4989199;28;20088;-83
2022/08/02 06:30:14;;;;;;;0.85;0.35;;;19.80;99.90;;;;;;5006589;28;20029;-81
2022/08/02 06:32:40;;;;;;;0.38;0.38;;;20.20;99.90;;;;;;5006633;28;20010;-77
2022/08/02 06:35:07;;;;;;;2.17;0.60;;;20.50;99.90;;;;;;5006476;28;20077;-78
2022/08/02 06:37:39;;;;;;;1.27;0.90;;;20.70;99.90;;;;;;5006410;28;20050;-81
2022/08/02 06:40:23;;;;;;;0.90;0.73;;;20.70;99.90;;;;;;5006506;28;20310;-82
2022/08/02 06:43:19;;;;;;;0.85;0.32;;;20.60;99.90;;;;;;5005980;28;20184;-85
2022/08/02 06:45:45;;;;;;;0.65;0.65;;;20.80;99.90;;;;;;5005864;28;20022;-78
2022/08/02 06:48:11;;;;;;;0.15;0.15;;;20.90;99.90;;;;;;5005902;28;20022;-82
2022/08/02 06:50:40;;;;;;;13.98;1.45;;;21.00;99.90;;;;;;5006206;28;20038;-82
2022/08/02 06:53:07;;;;;;;0.20;0.20;;;21.00;99.90;;;;;;5006859;28;20134;-78
2022/08/02 06:55:33;;;;;;;0.30;0.20;;;20.90;99.90;;;;;;5006495;28;20026;-82
2022/08/02 06:57:59;;;;;;;0.30;0.30;;;20.80;99.90;;;;;;5005807;28;20010;-81
2022/08/02 07:00:26;;;;;;;1.23;1.08;;;20.80;99.90;;;;;;4988769;28;20030;-78
2022/08/02 07:02:52;;;;;;;0.57;0.50;;;20.80;99.90;;;;;;5006226;28;20020;-88
2022/08/02 07:05:18;;;;;;;0.35;0.35;;;21.00;99.90;;;;;;5006136;28;20046;-87
2022/08/02 07:07:44;;;;;;;0.50;0.20;;;21.60;99.90;;;;;;5005924;28;20025;-82
2022/08/02 07:10:10;;;;;;;1.23;1.15;;;22.80;99.90;;;;;;5005878;28;20090;-82
2022/08/02 07:12:36;;;;;;;0.52;0.52;;;24.30;99.90;;;;;;5006092;28;20076;-84
2022/08/02 07:15:05;;;;;;;1.65;0.45;;;25.60;99.90;;;;;;4988347;28;20089;-87
2022/08/02 07:17:31;;;;;;;0.40;0.40;;;26.20;99.90;;;;;;5002707;28;20483;-79
2022/08/02 07:19:57;;;;;;;0.65;0.65;;;27.00;99.90;;;;;;4995641;28;20031;-78
2022/08/02 07:22:25;;;;;;;0.38;0.38;;;27.70;98.70;;;;;;4978051;28;20037;-83
2022/08/02 07:24:52;;;;;;;0.35;0.35;;;28.40;92.40;;;;;;4979718;28;20033;-81
2022/08/02 07:27:19;;;;;;;0.30;0.30;;;27.60;92.40;;;;;;4981230;28;20026;-82
2022/08/02 07:29:45;;;;;;;0.40;0.40;;;27.40;95.50;;;;;;4977903;28;20030;-79
2022/08/02 07:32:10;;;;;;;0.40;0.38;;;27.20;92.00;;;;;;4995337;28;20018;-80
2022/08/02 07:34:36;;;;;;;0.30;0.30;;;28.30;88.50;;;;;;4995482;28;20031;-80
2022/08/02 07:37:02;;;;;;;0.20;0.17;;;28.70;82.00;;;;;;5003694;28;20074;-77
2022/08/02 07:39:29;;;;;;;0.40;0.40;;;29.20;79.30;;;;;;4988649;28;20104;-79
2022/08/02 07:41:55;;;;;;;0.20;0.20;;;29.30;75.60;;;;;;4985773;28;20241;-78
2022/08/02 07:44:22;;;;;;;0.47;0.47;;;29.70;73.50;;;;;;4996539;28;20026;-79
2022/08/02 07:46:47;;;;;;;0.80;0.73;;;30.10;71.40;;;;;;4994647;28;20105;-84
2022/08/02 07:49:17;;;;;;;0.60;0.30;;;28.60;77.60;;;;;;4994696;28;20073;-79
2022/08/02 07:51:44;;;;;;;0.30;0.30;;;28.90;77.00;;;;;;4994412;28;20053;-83
2022/08/02 07:54:10;;;;;;;0.20;0.20;;;29.20;74.30;;;;;;4994597;28;20054;-78
2022/08/02 07:56:36;;;;;;;1.25;0.50;;;29.80;73.20;;;;;;4977068;28;20475;-77
2022/08/02 07:59:02;;;;;;;1.75;0.88;;;30.00;70.20;;;;;;4994442;28;20131;-82
2022/08/02 08:01:28;;;;;;;0.10;0.10;;;30.00;70.80;;;;;;4994526;28;20150;-78
2022/08/02 08:03:54;;;;;;;0.30;0.30;;;30.60;68.80;;;;;;4994275;28;20030;-80
2022/08/02 08:06:19;;;;;;;0.30;0.30;;;30.70;68.50;;;;;;4976972;28;20030;-78
2022/08/02 08:08:45;;;;;;;0.28;0.28;;;29.80;67.90;;;;;;4994196;28;20057;-76
2022/08/02 08:11:11;;;;;;;0.32;0.32;;;30.00;70.50;;;;;;4994442;28;20049;-79
2022/08/02 08:13:36;;;;;;;0.57;0.55;;;29.70;70.50;;;;;;4994350;28;20041;-83
2022/08/02 08:16:02;;;;;;;0.70;0.70;;;29.30;74.10;;;;;;4994138;28;20034;-80
2022/08/02 08:18:28;;;;;;;0.75;0.68;;;29.90;71.20;;;;;;4994037;28;20022;-79
2022/08/02 08:20:54;;;;;;;0.20;0.17;;;30.20;69.90;;;;;;4994280;28;20022;-79
2022/08/02 08:23:20;;;;;;;2.17;1.38;;;30.30;71.30;;;;;;4994127;28;20022;-77
2022/08/02 08:25:46;;;;;;;0.40;0.40;;;29.90;67.60;;;;;;4994392;28;20057;-77
2022/08/02 08:28:11;;;;;;;0.22;0.22;;;29.60;69.50;;;;;;4994521;28;20026;-80
2022/08/02 08:30:40;;;;;;;0.40;0.40;;;29.80;69.30;;;;;;4977014;28;20034;-79
2022/08/02 08:33:05;;;;;;;0.30;0.30;;;29.50;70.80;;;;;;4994103;28;20045;-81
2022/08/02 08:35:31;;;;;;;0.10;0.10;;;30.10;69.40;;;;;;4993761;28;20062;-82
2022/08/02 08:37:57;;;;;;;0.30;0.30;;;30.20;69.50;;;;;;4977084;28;20033;-83
2022/08/02 08:40:24;;;;;;;0.28;0.15;;;30.50;69.60;;;;;;4995146;28;20497;-80
2022/08/02 08:42:50;;;;;;;1.35;0.52;;;;;;;;;;4997808;28;20102;-77
2022/08/02 08:45:16;;;;;;;0.30;0.30;;;;;;;;;;4997848;28;20061;-80
2022/08/02 08:47:43;;;;;;;1.35;0.35;;;28.40;69.50;;;;;;4998349;28;20022;-81
2022/08/02 08:50:15;;;;;;;1.42;0.68;;;28.50;73.40;;;;;;4998751;28;20023;-84
2022/08/02 08:52:52;;;;;;;0.38;0.22;;;27.80;74.20;;;;;;4980229;28;20467;-77
2022/08/02 08:55:23;;;;;;;0.10;0.10;;;27.60;86.40;;;;;;4997859;28;20035;-81
2022/08/02 08:57:50;;;;;;;0.20;0.20;;;27.50;81.00;;;;;;4998059;28;20050;-79
2022/08/02 09:00:16;;;;;;;1.23;0.57;;;27.80;79.60;;;;;;4998262;28;20109;-78
2022/08/02 09:02:42;;;;;;;0.10;0.10;;;27.60;79.90;;;;;;4997854;28;20033;-83
2022/08/02 09:05:13;;;;;;;0.32;0.28;;;28.00;77.00;;;;;;4997904;28;20019;-82
2022/08/02 09:07:41;;;;;;;0.73;0.43;;;28.20;79.50;;;;;;4997956;28;20026;-78
2022/08/02 09:10:35;;;;;;;0.32;0.32;;;28.40;77.10;;;;;;4980481;28;20407;-83
2022/08/02 09:13:21;;;;;;;0.17;0.10;;;27.70;85.30;;;;;;4997833;28;20057;-84
2022/08/02 09:15:54;;;;;;;0.65;0.65;;;26.90;92.10;;;;;;4997724;28;20038;-84
2022/08/02 09:18:27;;;;;;;0.20;0.20;;;25.90;98.20;;;;;;4997926;28;20015;-80
2022/08/02 09:21:01;;;;;;;0.40;0.15;;;25.50;99.90;;;;;;4997575;28;20037;-79
2022/08/02 09:23:54;;;;;;;0.30;0.20;;;25.90;99.90;;;;;;4997722;28;20018;-78
2022/08/02 09:26:22;;;;;;;0.43;0.20;;;26.20;99.50;;;;;;4994714;28;20109;-76
2022/08/02 09:28:51;;;;;;;0.20;0.20;;;26.50;97.90;;;;;;4997197;28;20033;-82
2022/08/02 09:31:21;;;;;;;0.70;0.70;;;26.70;96.70;;;;;;4979923;28;20022;-80
2022/08/02 09:33:59;;;;;;;0.28;0.22;;;26.90;96.30;;;;;;4997041;28;20049;-79
2022/08/02 09:36:26;;;;;;;0.20;0.20;;;27.60;92.40;;;;;;4996916;28;20122;-76
2022/08/02 09:38:52;;;;;;;0.13;0.13;;;27.70;92.10;;;;;;4997441;28;20029;-77
2022/08/02 09:41:23;;;;;;;0.57;0.20;;;28.20;90.50;;;;;;4997438;28;20031;-82
2022/08/02 09:43:49;;;;;;;0.43;0.30;;;28.80;75.90;;;;;;4997410;28;20022;-83
2022/08/02 09:46:24;;;;;;;1.20;0.52;;;28.80;77.00;;;;;;4979868;28;20443;-86
2022/08/02 09:48:59;;;;;;;2.30;0.40;;;28.30;82.80;;;;;;4997338;28;20068;-84
2022/08/02 09:51:33;;;;;;;0.47;0.17;;;27.20;88.80;;;;;;4997266;28;20022;-79
2022/08/02 09:54:02;;;;;;;0.47;0.47;;;27.00;93.40;;;;;;4996893;28;20022;-78
2022/08/02 09:56:38;;;;;;;0.22;0.20;;;26.80;95.20;;;;;;4996843;28;20034;-80
2022/08/02 09:59:07;;;;;;;1.17;0.55;;;27.20;91.40;;;;;;4996463;28;20037;-77
2022/08/02 10:01:33;;;;;;;0.40;0.40;;;27.40;91.60;;;;;;4996516;28;20034;-77
2022/08/02 10:04:03;;;;;;;3.03;1.77;;;27.40;89.90;;;;;;4978816;28;20026;-79
2022/08/02 10:06:29;;;;;;;;;;;27.30;90.10;;;;;;4996700;28;20022;-81
2022/08/02 10:08:55;;;;;;;1.38;0.45;;;27.30;88.60;;;;;;4996741;28;20246;-81
2022/08/02 10:11:22;;;;;;;0.63;0.30;;;27.20;90.80;;;;;;4996708;28;20018;-82
2022/08/02 10:13:48;;;;;;;0.20;0.20;;;27.20;89.60;;;;;;4978889;28;20022;-82
2022/08/02 10:16:16;;;;;;;0.20;0.20;;;27.30;85.50;;;;;;4996410;28;20053;-80
2022/08/02 10:18:43;;;;;;;0.17;0.17;;;27.30;85.00;;;;;;4996372;28;20023;-78
2022/08/02 10:21:22;;;;;;;0.60;0.40;;;27.70;81.50;;;;;;4996211;28;20050;-79
2022/08/02 10:23:49;;;;;;;0.20;0.20;;;27.60;78.40;;;;;;4996318;28;20065;-81
2022/08/02 10:26:17;;;;;;;1.55;0.20;;;28.10;79.00;;;;;;4995951;28;20033;-77
2022/08/02 10:28:48;;;;;;;0.20;0.10;;;28.60;72.10;;;;;;4995849;28;20030;-77
2022/08/02 10:31:19;;;;;;;0.20;0.20;;;28.70;70.30;;;;;;4995866;28;20022;-84
2022/08/02 10:33:47;;;;;;;0.60;0.10;;;28.20;74.20;;;;;;4995751;28;20026;-76
2022/08/02 10:36:13;;;;;;;1.45;0.55;;;27.90;74.40;;;;;;4995731;28;20456;-78
2022/08/02 10:38:40;;;;;;;1.58;0.47;;;28.00;75.80;;;;;;4995775;28;20053;-77
2022/08/02 10:41:06;;;;;;;0.30;0.30;;;28.60;74.20;;;;;;4995761;28;20434;-76
2022/08/02 10:43:35;;;;;;;0.20;0.20;;;28.70;72.20;;;;;;4978428;28;20022;-78
2022/08/02 10:46:28;;;;;;;0.38;0.38;;;29.00;71.60;;;;;;4995595;28;20023;-80
2022/08/02 10:49:01;;;;;;;0.28;0.28;;;29.50;69.20;;;;;;4978037;28;20169;-77
2022/08/02 10:51:53;;;;;;;0.65;0.63;;;29.90;70.70;;;;;;4995802;28;20542;-79
2022/08/02 10:54:21;;;;;;;0.20;0.20;;;29.10;68.10;;;;;;4987637;28;20114;-78
2022/08/02 10:56:48;;;;;;;0.52;0.32;;;29.20;68.00;;;;;;4977890;28;20065;-80
2022/08/02 10:59:30;;;;;;;0.00;0.00;;;29.00;69.20;;;;;;4977866;28;20057;-77
2022/08/02 11:02:01;;;;;;;0.30;0.17;;;29.00;69.60;;;;;;4995257;28;20026;-78
2022/08/02 11:04:35;;;;;;;1.20;0.77;;;28.80;69.20;;;;;;5000774;28;20045;-81
2022/08/02 11:07:10;;;;;;;1.42;0.52;;;28.80;70.20;;;;;;5005705;28;20014;-79
2022/08/02 11:09:36;;;;;;;1.25;0.20;;;29.10;66.40;;;;;;5005227;28;20022;-80
2022/08/02 11:12:08;;;;;;;1.05;0.40;;;29.10;66.40;;;;;;4986092;28;20460;-81
2022/08/02 11:14:35;;;;;;;0.10;0.10;;;29.50;65.90;;;;;;5004814;28;20026;-81
2022/08/02 11:17:09;;;;;;;0.25;0.25;;;29.60;66.00;;;;;;4985132;28;20064;-85
2022/08/02 11:20:10;;;;;;;0.10;0.10;;;29.90;64.40;;;;;;5005369;28;20015;-84
2022/08/02 11:22:37;;;;;;;0.17;0.17;;;30.00;62.70;;;;;;4983945;28;20022;-79
2022/08/02 11:25:21;;;;;;;0.60;0.40;;;29.90;63.20;;;;;;4981851;28;20103;-82
2022/08/02 11:28:08;;;;;;;0.03;0.03;;;31.50;64.70;;;;;;4979848;28;20029;-83
2022/08/02 11:30:34;;;;;;;0.20;0.20;;;31.40;65.40;;;;;;4998092;28;20117;-82
2022/08/02 11:33:00;;;;;;;0.28;0.28;;;30.80;62.10;;;;;;5002374;28;20090;-79
2022/08/02 11:35:39;;;;;;;0.50;0.43;;;30.90;61.20;;;;;;4986025;28;20038;-80
2022/08/02 11:38:15;;;;;;;;;;;31.50;60.10;;;;;;4984510;28;20035;-81
2022/08/02 11:40:42;;;;;;;0.20;0.20;;;32.00;60.00;;;;;;5000198;28;19901;-78
2022/08/02 11:43:22;;;;;;;0.38;0.20;;;32.20;57.60;;;;;;4985407;28;20322;-77
2022/08/02 11:45:49;;;;;;;0.10;0.10;;;31.50;55.50;;;;;;5004071;28;20026;-78
2022/08/02 11:48:33;;;;;;;0.00;0.00;;;31.00;58.50;;;;;;4986012;28;20026;-81
2022/08/02 11:51:11;;;;;;;0.00;0.00;;;30.80;57.00;;;;;;5003958;28;20019;-79
2022/08/02 11:53:52;;;;;;;0.08;0.08;;;30.90;56.70;;;;;;5003581;28;20307;-84
2022/08/02 11:56:26;;;;;;;0.10;0.10;;;31.70;55.40;;;;;;5001594;28;20045;-80
2022/08/02 11:59:07;;;;;;;0.28;0.28;;;32.20;53.90;;;;;;4999971;28;20504;-80
2022/08/02 12:01:35;;;;;;;0.32;0.32;;;32.90;52.70;;;;;;4999958;28;20121;-84
2022/08/02 12:04:03;;;;;;;0.00;0.00;;;33.30;51.90;;;;;;5003600;28;20014;-80
2022/08/02 12:06:30;;;;;;;0.13;0.13;;;33.30;51.90;;;;;;5002312;28;20014;-78
2022/08/02 12:09:04;;;;;;;0.15;0.15;;;33.90;51.60;;;;;;5002903;28;20049;-81
2022/08/02 12:11:30;;;;;;;0.13;0.13;;;33.90;50.80;;;;;;5002776;28;20018;-86
2022/08/02 12:13:56;;;;;;;0.30;0.30;;;33.40;50.80;;;;;;5000568;28;20079;-78
2022/08/02 12:19:19;;;;;;;0.60;0.13;;;34.10;51.20;;;;;;4998193;28;20053;-76
2022/08/02 12:22:05;;;;;;;1.55;0.40;;;34.60;49.90;;;;;;4994890;28;20109;-79
2022/08/02 12:24:31;;;;;;;0.00;0.00;;;34.80;49.00;;;;;;4998966;28;20030;-82
2022/08/02 12:26:56;;;;;;;0.38;0.10;;;35.10;48.50;;;;;;4998244;28;20072;-80
2022/08/02 12:29:38;;;;;;;3.63;0.47;;;34.30;49.50;;;;;;4998299;28;20030;-76
2022/08/02 12:32:05;;;;;;;0.00;0.00;;;34.40;50.30;;;;;;4995649;28;20033;-79
2022/08/02 12:34:32;;;;;;;0.32;0.30;;;34.40;51.10;;;;;;4999457;28;20029;-81
2022/08/02 12:37:09;;;;;;;0.10;0.10;;;35.00;50.60;;;;;;4994430;28;20069;-79
2022/08/02 12:39:41;;;;;;;1.00;0.30;;;35.40;48.60;;;;;;5003538;28;20029;-82
2022/08/02 12:42:11;;;;;;;0.10;0.10;;;34.70;50.20;;;;;;4997308;28;20022;-81
2022/08/02 12:44:49;;;;;;;0.10;0.10;;;33.90;49.90;;;;;;5000347;28;20019;-74
2022/08/02 12:47:15;;;;;;;0.23;0.23;;;33.80;50.50;;;;;;5002852;28;20021;-75
2022/08/02 12:49:40;;;;;;;0.38;0.38;;;33.70;51.50;;;;;;4986389;28;20279;-86
2022/08/02 12:52:23;;;;;;;0.10;0.10;;;33.70;50.80;;;;;;5003430;28;20031;-74
2022/08/02 12:54:49;;;;;;;0.20;0.20;;;34.20;50.00;;;;;;4986395;28;20026;-75
2022/08/02 12:57:16;;;;;;;0.73;0.73;;;35.20;50.10;;;;;;4981374;28;20030;-83
2022/08/02 12:59:50;;;;;;;0.87;0.20;;;35.50;48.10;;;;;;4981929;28;20029;-82
2022/08/02 13:02:16;;;;;;;0.00;0.00;;;36.20;48.10;;;;;;4998190;28;20026;-74
2022/08/02 13:04:42;;;;;;;0.30;0.30;;;36.60;46.60;;;;;;4993640;28;20027;-74
2022/08/02 13:07:08;;;;;;;0.55;0.20;;;36.10;47.50;;;;;;4976739;28;20031;-75
2022/08/02 13:09:44;;;;;;;0.00;0.00;;;35.80;45.80;;;;;;4977397;28;20022;-75
2022/08/02 13:12:10;;;;;;;0.10;0.10;;;35.60;46.70;;;;;;5000707;28;20207;-75
2022/08/02 13:14:37;;;;;;;0.20;0.20;;;36.20;46.60;;;;;;5001984;28;20019;-78
2022/08/02 13:17:02;;;;;;;0.10;0.00;;;35.60;45.80;;;;;;5003364;28;20041;-79
2022/08/02 13:19:28;;;;;;;0.10;0.10;;;35.00;45.90;;;;;;4998680;28;20323;-74
2022/08/02 13:21:54;;;;;;;0.20;0.20;;;34.50;48.00;;;;;;4998785;28;20322;-78
2022/08/02 13:24:20;;;;;;;0.45;0.40;;;34.00;49.10;;;;;;4996476;28;20053;-74
2022/08/02 13:26:46;;;;;;;0.10;0.10;;;33.80;49.00;;;;;;4995301;28;20027;-80
2022/08/02 13:29:12;;;;;;;0.43;0.40;;;34.10;48.20;;;;;;4999955;28;20018;-75
2022/08/02 13:31:38;;;;;;;0.10;0.10;;;34.50;48.00;;;;;;5005097;28;20050;-81